Time;durP1;ratioP1;P1;durP2;ratioP2;P2;SDS_P1;SDS_P2;PMS_P1;PMS_P2;Temp;Humidity;BMP_temperature;BMP_pressure;BME280_temperature;BME280_humidity;BME280_pressure;Samples;Min_cycle;Max_cycle;Signal;HPM_P1;HPM_P2
2022/04/22 00:00:08;;;;;;;28.08;20.40;;;;;;;9.13;100.00;99345.19;4939378;29;20042;-90
2022/04/22 00:02:34;;;;;;;30.80;20.20;;;;;;;9.31;100.00;99343.03;4923101;29;20442;-92
2022/04/22 00:05:01;;;;;;;29.85;20.42;;;;;;;9.05;100.00;99337.38;4940489;29;20043;-92
2022/04/22 00:07:29;;;;;;;28.27;19.55;;;;;;;9.14;100.00;99321.22;4941215;29;20051;-92
2022/04/22 00:10:01;;;;;;;33.33;20.88;;;;;;;9.25;100.00;99325.22;4942248;29;20114;-92
2022/04/22 00:12:26;;;;;;;29.00;20.70;;;;;;;9.06;100.00;99312.56;4943634;29;20043;-92
2022/04/22 00:14:52;;;;;;;28.77;20.23;;;;;;;9.24;100.00;99311.22;4939090;29;20040;-91
2022/04/22 00:17:17;;;;;;;31.08;21.77;;;;;;;9.05;100.00;99300.38;4937860;29;20071;-92
2022/04/22 00:19:43;;;;;;;30.75;21.83;;;;;;;9.03;100.00;99302.34;4938678;29;20380;-91
2022/04/22 00:22:08;;;;;;;33.70;22.70;;;;;;;9.03;100.00;99297.88;4939087;29;20118;-90
2022/04/22 00:24:34;;;;;;;34.72;22.02;;;;;;;9.08;100.00;99284.13;4941240;29;20067;-91
2022/04/22 00:27:00;;;;;;;36.33;22.50;;;;;;;9.02;100.00;99279.56;4940821;29;20119;-93
2022/04/22 00:29:26;;;;;;;33.63;20.50;;;;;;;8.98;100.00;99270.38;4940649;29;20110;-93
2022/04/22 00:31:51;;;;;;;30.00;20.13;;;;;;;9.24;100.00;99274.19;4938707;29;20522;-93
2022/04/22 00:34:17;;;;;;;31.45;21.00;;;;;;;9.09;100.00;99269.91;4945147;29;20031;-90
2022/04/22 00:36:42;;;;;;;30.92;20.83;;;;;;;9.07;100.00;99266.63;4939289;29;20046;-91
2022/04/22 00:39:08;;;;;;;31.48;22.00;;;;;;;9.04;100.00;99267.00;4924028;29;20511;-89
2022/04/22 00:41:33;;;;;;;39.13;23.80;;;;;;;9.00;100.00;99266.53;4940968;29;20127;-90
2022/04/22 00:43:59;;;;;;;32.50;22.58;;;;;;;9.03;100.00;99252.13;4953988;29;20039;-88
2022/04/22 00:46:24;;;;;;;37.60;25.02;;;;;;;9.07;100.00;99253.41;4958711;29;20024;-89
2022/04/22 00:48:50;;;;;;;36.70;22.58;;;;;;;9.18;100.00;99247.69;4958177;29;20048;-89
2022/04/22 00:51:18;;;;;;;36.53;23.27;;;;;;;9.04;100.00;99246.69;4956305;29;20502;-87
2022/04/22 00:53:52;;;;;;;38.42;23.02;;;;;;;9.05;100.00;99242.22;4955843;29;20047;-88
2022/04/22 00:56:18;;;;;;;33.30;23.13;;;;;;;9.17;100.00;99216.94;4946290;29;20371;-88
2022/04/22 00:58:45;;;;;;;37.80;24.88;;;;;;;9.01;100.00;99225.09;4948713;29;20028;-89
2022/04/22 01:01:12;;;;;;;34.58;23.52;;;;;;;9.05;100.00;99231.66;4950894;29;20036;-88
2022/04/22 01:03:38;;;;;;;32.55;22.13;;;;;;;9.02;100.00;99238.09;4951577;29;20074;-91
2022/04/22 01:11:37;;;;;;;36.38;24.27;;;;;;;9.06;100.00;99227.97;4933942;29;20075;-89
2022/04/22 01:14:06;;;;;;;38.28;26.33;;;;;;;8.96;100.00;99222.16;4945609;29;20024;-90
2022/04/22 01:16:32;;;;;;;37.13;25.30;;;;;;;9.14;100.00;99214.69;4947243;29;20094;-91
2022/04/22 01:18:58;;;;;;;34.80;23.63;;;;;;;9.07;100.00;99214.59;4946913;29;20046;-90
2022/04/22 01:21:24;;;;;;;32.28;21.63;;;;;;;9.06;100.00;99204.19;4942845;29;20402;-91
2022/04/22 01:23:50;;;;;;;29.08;20.50;;;;;;;9.22;100.00;99206.63;4950883;29;20176;-89
2022/04/22 01:26:15;;;;;;;28.33;19.50;;;;;;;9.17;100.00;99198.44;4953327;29;20072;-91
2022/04/22 01:28:42;;;;;;;27.63;19.90;;;;;;;9.11;100.00;99191.25;4958116;29;20043;-89
2022/04/22 01:31:07;;;;;;;28.67;19.95;;;;;;;9.09;100.00;99190.63;4961251;29;20027;-90
2022/04/22 01:33:33;;;;;;;27.73;20.67;;;;;;;9.07;100.00;99185.53;4960225;29;20015;-92
2022/04/22 01:36:01;;;;;;;31.30;21.67;;;;;;;9.20;100.00;99179.56;4961559;28;20075;-88
2022/04/22 01:38:27;;;;;;;34.83;22.33;;;;;;;9.09;100.00;99172.13;4944442;29;20352;-91
2022/04/22 01:40:53;;;;;;;32.13;22.27;;;;;;;9.07;100.00;99174.13;4941480;29;20047;-93
2022/04/22 01:43:18;;;;;;;36.47;23.63;;;;;;;9.06;100.00;99175.13;4945337;29;20047;-92
2022/04/22 01:45:44;;;;;;;34.38;23.17;;;;;;;8.98;100.00;99169.97;4942064;29;20036;-90
2022/04/22 01:48:10;;;;;;;34.60;23.60;;;;;;;8.92;100.00;99162.75;4940701;29;20036;-90
2022/04/22 01:50:35;;;;;;;34.95;24.52;;;;;;;9.01;100.00;99162.50;4941029;29;20055;-90
2022/04/22 01:53:01;;;;;;;35.63;24.48;;;;;;;8.87;100.00;99151.94;4940860;29;20063;-90
2022/04/22 01:55:27;;;;;;;41.55;25.27;;;;;;;8.78;100.00;99159.16;4939744;29;20047;-93
2022/04/22 01:57:54;;;;;;;36.85;25.15;;;;;;;8.88;100.00;99154.41;4940481;29;20123;-92
2022/04/22 02:00:20;;;;;;;38.47;24.70;;;;;;;8.83;100.00;99152.31;4939644;29;20040;-90
2022/04/22 02:02:46;;;;;;;38.90;25.48;;;;;;;8.83;100.00;99154.94;4938682;29;20048;-91
2022/04/22 02:05:12;;;;;;;36.78;25.65;;;;;;;8.79;100.00;99150.19;4939450;29;20154;-91
2022/04/22 02:07:41;;;;;;;38.20;25.52;;;;;;;8.75;100.00;99147.09;4940692;29;20502;-92
2022/04/22 02:10:07;;;;;;;36.10;25.15;;;;;;;8.72;100.00;99147.47;4922897;29;20047;-89
2022/04/22 02:12:33;;;;;;;41.13;25.95;;;;;;;8.80;100.00;99134.19;4939593;29;20075;-88
2022/04/22 02:14:59;;;;;;;37.47;25.98;;;;;;;8.83;100.00;99131.16;4937384;29;20042;-88
2022/04/22 02:17:25;;;;;;;36.03;24.88;;;;;;;8.83;100.00;99128.53;4939877;29;20035;-90
2022/04/22 02:19:50;;;;;;;36.38;23.88;;;;;;;8.71;100.00;99130.00;4939920;29;20032;-92
2022/04/22 02:22:16;;;;;;;37.63;25.80;;;;;;;8.63;100.00;99127.47;4940440;29;20083;-87
2022/04/22 02:24:41;;;;;;;41.20;27.02;;;;;;;8.66;100.00;99126.25;4940558;29;20095;-90
2022/04/22 02:29:53;;;;;;;37.88;26.85;;;;;;;8.76;100.00;99122.34;4943848;28;20070;-88
2022/04/22 02:32:19;;;;;;;40.67;27.00;;;;;;;8.83;100.00;99123.25;4959412;28;20051;-91
2022/04/22 02:34:45;;;;;;;41.85;27.30;;;;;;;8.79;100.00;99116.69;4946451;29;20044;-92
2022/04/22 02:37:10;;;;;;;42.72;27.52;;;;;;;8.74;100.00;99111.16;4939661;29;20027;-89
2022/04/22 02:39:36;;;;;;;42.22;27.00;;;;;;;8.69;100.00;99112.69;4940814;29;20545;-92
2022/04/22 02:45:33;;;;;;;49.20;29.15;;;;;;;8.65;100.00;99103.53;4960412;28;20059;-86
2022/04/22 02:47:58;;;;;;;43.97;28.40;;;;;;;8.75;100.00;99094.28;4959736;28;20063;-90
2022/04/22 02:50:24;;;;;;;45.22;28.52;;;;;;;8.68;100.00;99097.88;4949341;28;20055;-91
2022/04/22 02:52:50;;;;;;;42.20;28.27;;;;;;;8.61;100.00;99084.59;4946136;29;20383;-89
2022/04/22 02:55:16;;;;;;;47.20;27.92;;;;;;;8.57;100.00;99083.31;4942169;29;20047;-91
2022/04/22 02:57:44;;;;;;;46.85;29.20;;;;;;;8.63;100.00;99077.28;4939754;29;20079;-91
2022/04/22 03:00:14;;;;;;;42.08;28.98;;;;;;;8.60;100.00;99079.47;4942463;29;20047;-91
2022/04/22 03:02:42;;;;;;;43.60;28.63;;;;;;;8.55;100.00;99077.38;4941623;29;20047;-91
2022/04/22 03:05:10;;;;;;;43.83;29.38;;;;;;;8.49;100.00;99072.84;4933328;29;20039;-89
2022/04/22 03:07:38;;;;;;;47.92;29.60;;;;;;;8.47;100.00;99069.56;4952275;29;20035;-87
2022/04/22 03:10:10;;;;;;;44.95;29.23;;;;;;;8.53;100.00;99071.47;4948357;29;20048;-90
2022/04/22 03:12:44;;;;;;;48.00;29.02;;;;;;;8.52;100.00;99064.53;4945162;29;20032;-93
2022/04/22 03:15:09;;;;;;;48.17;30.67;;;;;;;8.51;100.00;99064.75;4944461;29;20035;-91
2022/04/22 03:17:35;;;;;;;45.55;30.00;;;;;;;8.47;100.00;99069.56;4939169;29;20080;-92
2022/04/22 03:20:01;;;;;;;47.38;31.02;;;;;;;8.50;100.00;99060.44;4940360;29;20054;-92
2022/04/22 03:22:26;;;;;;;50.33;31.67;;;;;;;8.57;100.00;99054.25;4941518;29;20055;-89
2022/04/22 03:24:52;;;;;;;48.03;30.50;;;;;;;8.65;100.00;99059.41;4937696;29;20047;-90
2022/04/22 03:27:17;;;;;;;46.35;28.45;;;;;;;8.66;100.00;99063.69;4944388;29;20056;-90
2022/04/22 03:29:43;;;;;;;44.78;29.30;;;;;;;8.78;100.00;99056.13;4943970;29;20044;-91
2022/04/22 03:32:11;;;;;;;45.90;30.35;;;;;;;8.67;100.00;99060.06;4927727;29;20043;-92
2022/04/22 03:34:39;;;;;;;45.47;29.88;;;;;;;8.69;100.00;99063.34;4952930;23;20047;-93
2022/04/22 03:37:06;;;;;;;47.58;29.38;;;;;;;8.69;100.00;99051.94;4971363;29;20031;-91
2022/04/22 03:39:31;;;;;;;47.03;29.77;;;;;;;8.69;100.00;99058.06;4925532;29;20402;-89
2022/04/22 03:42:03;;;;;;;50.55;30.45;;;;;;;8.74;100.00;99055.69;4964757;29;20035;-89
2022/04/22 03:44:29;;;;;;;31.50;21.17;;;;;;;8.69;100.00;99047.47;4942629;29;20039;-91
2022/04/22 03:46:54;;;;;;;48.50;29.23;;;;;;;8.68;100.00;99040.56;4941537;29;20126;-88
2022/04/22 03:49:20;;;;;;;46.92;29.50;;;;;;;8.66;100.00;99039.94;4959126;29;20090;-91
2022/04/22 03:51:45;;;;;;;46.30;29.17;;;;;;;8.57;100.00;99038.41;4961425;29;20039;-91
2022/04/22 03:54:11;;;;;;;49.15;29.63;;;;;;;8.52;100.00;99043.41;4972917;28;20103;-88
2022/04/22 03:59:20;;;;;;;51.47;32.63;;;;;;;8.46;100.00;99041.53;4965038;29;20087;-91
2022/04/22 04:05:55;;;;;;;49.03;31.52;;;;;;;8.46;100.00;99038.88;4977344;29;20050;-89
2022/04/22 04:08:24;;;;;;;50.25;30.05;;;;;;;8.46;100.00;99030.13;4960042;29;20034;-87
2022/04/22 04:15:57;;;;;;;48.88;30.95;;;;;;;8.63;100.00;99027.09;4976747;29;20024;-88
2022/04/22 04:16:26;;;;;;;51.47;30.60;;;;;;;8.57;100.00;99022.56;4976926;28;20050;-88
2022/04/22 04:23:14;;;;;;;49.50;31.10;;;;;;;8.57;100.00;99027.03;4982031;28;20043;-89
2022/04/22 04:24:25;;;;;;;53.55;32.03;;;;;;;8.68;100.00;99023.91;4963807;28;20053;-85
2022/04/22 04:26:53;;;;;;;46.47;29.40;;;;;;;8.62;100.00;99024.63;4974294;29;20034;-88
2022/04/22 04:29:19;;;;;;;52.17;31.13;;;;;;;8.64;100.00;99022.66;4948493;29;20082;-90
2022/04/22 04:31:47;;;;;;;53.15;31.67;;;;;;;8.63;100.00;99016.53;4980521;28;20054;-89
2022/04/22 04:34:13;;;;;;;51.10;29.95;;;;;;;8.66;100.00;99021.44;4974998;29;20098;-86
2022/04/22 04:36:38;;;;;;;50.63;28.85;;;;;;;8.83;100.00;99011.47;4957267;29;20039;-84
2022/04/22 04:39:04;;;;;;;49.80;30.75;;;;;;;8.87;100.00;99015.38;4973040;29;20809;-86
2022/04/22 04:41:29;;;;;;;48.50;29.63;;;;;;;9.00;100.00;99018.16;4976119;29;20117;-89
2022/04/22 04:43:55;;;;;;;50.67;29.73;;;;;;;9.05;100.00;99021.03;4974950;29;20022;-84
2022/04/22 04:46:23;;;;;;;50.92;29.90;;;;;;;9.08;100.00;99017.22;4973046;29;20051;-86
2022/04/22 04:48:48;;;;;;;50.33;30.38;;;;;;;9.11;100.00;99019.47;4947456;29;20032;-91
2022/04/22 04:51:14;;;;;;;47.80;30.27;;;;;;;9.15;100.00;99020.72;4966240;29;20042;-90
2022/04/22 04:53:39;;;;;;;52.92;29.60;;;;;;;8.99;100.00;99015.69;4948910;29;20043;-87
2022/04/22 04:56:05;;;;;;;49.15;29.30;;;;;;;8.85;100.00;99008.66;4963090;29;20057;-87
2022/04/22 04:58:30;;;;;;;50.63;29.20;;;;;;;8.95;100.00;99019.72;4962379;29;20518;-88
2022/04/22 05:00:56;;;;;;;55.85;32.95;;;;;;;8.81;100.00;99040.72;4945177;29;20114;-90
2022/04/22 05:03:21;;;;;;;51.53;30.88;;;;;;;8.81;100.00;99040.72;4945293;29;20039;-86
2022/04/22 05:05:47;;;;;;;50.85;29.92;;;;;;;8.85;100.00;99040.34;4944046;29;20047;-88
2022/04/22 05:08:13;;;;;;;55.67;31.30;;;;;;;8.78;100.00;99046.34;4945272;28;20115;-89
2022/04/22 05:10:38;;;;;;;55.03;32.70;;;;;;;8.75;100.00;99035.34;4962936;29;20371;-86
2022/04/22 05:13:05;;;;;;;54.97;32.00;;;;;;;8.78;100.00;99027.88;4971441;29;20035;-91
2022/04/22 05:15:33;;;;;;;59.15;33.47;;;;;;;8.70;100.00;99028.00;4953637;29;20101;-87
2022/04/22 05:18:05;;;;;;;62.00;35.70;;;;;;;8.64;100.00;99026.13;4959068;29;20072;-87
2022/04/22 05:20:36;;;;;;;63.70;36.30;;;;;;;8.54;100.00;99027.41;4980731;28;20047;-86
2022/04/22 05:23:02;;;;;;;65.38;35.78;;;;;;;8.50;100.00;99020.84;4972511;29;20043;-88
2022/04/22 05:28:09;;;;;;;67.28;36.80;;;;;;;8.59;100.00;99028.47;4893701;26;20051;-89
2022/04/22 05:33:23;;;;;;;64.82;36.53;;;;;;;8.65;100.00;99030.38;4943274;29;20071;-87
2022/04/22 05:35:52;;;;;;;73.53;39.03;;;;;;;8.62;100.00;99027.28;4953734;29;20027;-81
2022/04/22 05:38:24;;;;;;;75.25;39.45;;;;;;;8.62;100.00;99027.28;4947236;29;20103;-81
2022/04/22 05:40:49;;;;;;;77.43;39.80;;;;;;;8.59;100.00;99036.41;4947432;29;20040;-81
2022/04/22 05:43:15;;;;;;;71.32;40.22;;;;;;;8.59;100.00;99025.84;4951088;29;20046;-80
2022/04/22 05:45:40;;;;;;;79.50;42.78;;;;;;;8.55;100.00;99019.28;4953150;29;20036;-82
2022/04/22 05:48:06;;;;;;;75.75;40.17;;;;;;;8.52;100.00;99026.75;4946346;29;20339;-82
2022/04/22 05:50:32;;;;;;;78.38;42.45;;;;;;;8.47;100.00;99024.69;4945830;29;20040;-81
2022/04/22 05:52:58;;;;;;;104.63;42.88;;;;;;;8.46;100.00;99025.69;4942636;29;20538;-83
2022/04/22 05:55:25;;;;;;;80.35;44.30;;;;;;;8.47;100.00;99022.06;4939357;29;20050;-83
2022/04/22 05:57:53;;;;;;;78.47;42.47;;;;;;;8.53;100.00;99025.75;4938548;29;20095;-83
2022/04/22 06:00:22;;;;;;;79.93;43.92;;;;;;;8.53;100.00;99018.66;4938133;29;20042;-85
2022/04/22 06:02:47;;;;;;;84.47;44.10;;;;;;;8.51;100.00;99028.59;4938386;29;20031;-82
2022/04/22 06:05:15;;;;;;;84.53;44.17;;;;;;;8.46;100.00;99019.56;4940987;29;20043;-85
2022/04/22 06:07:41;;;;;;;86.80;44.58;;;;;;;8.51;100.00;99019.84;4925313;29;20071;-81
2022/04/22 06:12:53;;;;;;;78.97;42.22;;;;;;;8.53;100.00;99020.47;4955811;29;20063;-81
2022/04/22 06:15:19;;;;;;;82.45;44.88;;;;;;;8.49;100.00;99025.31;4956520;29;20039;-84
2022/04/22 06:17:44;;;;;;;75.75;41.67;;;;;;;8.54;100.00;99015.03;4954352;29;20028;-84
2022/04/22 06:20:10;;;;;;;78.80;43.00;;;;;;;8.64;100.00;99020.84;4937923;29;20079;-85
2022/04/22 06:22:36;;;;;;;83.50;42.92;;;;;;;8.55;100.00;99014.00;4938492;29;20103;-83
2022/04/22 06:25:02;;;;;;;78.55;42.42;;;;;;;8.54;100.00;99020.31;4938064;29;20036;-82
2022/04/22 06:27:39;;;;;;;82.03;44.60;;;;;;;8.57;100.00;99012.00;4937859;29;20059;-83
2022/04/22 06:30:16;;;;;;;76.55;42.05;;;;;;;8.61;100.00;99008.00;4937914;29;20052;-86
2022/04/22 06:32:43;;;;;;;81.65;44.25;;;;;;;8.56;100.00;99005.09;4938005;29;20036;-86
2022/04/22 06:35:10;;;;;;;84.47;43.53;;;;;;;8.61;100.00;99013.28;4937803;29;20032;-85
2022/04/22 06:37:40;;;;;;;77.72;43.53;;;;;;;8.65;100.00;99014.53;4920751;29;20036;-80
2022/04/22 06:45:47;;;;;;;82.15;44.83;;;;;;;8.65;100.00;99014.53;4940925;29;20047;-83
2022/04/22 06:48:20;;;;;;;85.22;44.90;;;;;;;8.66;100.00;99010.06;4938588;29;20102;-83
2022/04/22 06:50:48;;;;;;;86.28;45.45;;;;;;;8.63;100.00;99011.25;4938541;29;20039;-83
2022/04/22 06:53:16;;;;;;;85.80;44.60;;;;;;;8.68;100.00;99014.16;4938680;29;20118;-82
2022/04/22 06:55:42;;;;;;;81.75;45.50;;;;;;;8.72;100.00;99009.31;4937983;29;20035;-84
2022/04/22 06:58:11;;;;;;;81.07;45.33;;;;;;;8.76;100.00;99006.13;4920638;29;20036;-83
2022/04/22 07:00:38;;;;;;;83.43;45.25;;;;;;;8.78;100.00;99003.31;4937754;29;20047;-83
2022/04/22 07:03:04;;;;;;;86.93;48.30;;;;;;;8.76;100.00;99006.13;4935899;29;20126;-82
2022/04/22 07:05:32;;;;;;;85.18;47.25;;;;;;;8.76;100.00;99008.75;4937662;29;20040;-81
2022/04/22 07:07:59;;;;;;;92.05;48.40;;;;;;;8.79;100.00;99004.91;4938740;29;20036;-80
2022/04/22 07:10:25;;;;;;;90.95;48.50;;;;;;;8.82;100.00;99005.38;4936085;29;20529;-82
2022/04/22 07:12:51;;;;;;;84.97;47.83;;;;;;;8.83;100.00;99012.28;4936949;29;20040;-84
2022/04/22 07:15:16;;;;;;;93.28;49.22;;;;;;;8.80;100.00;99011.84;4936978;29;20036;-82
2022/04/22 07:17:42;;;;;;;89.95;48.08;;;;;;;8.83;100.00;99012.28;4936740;29;20479;-83
2022/04/22 07:20:10;;;;;;;88.28;49.28;;;;;;;8.87;100.00;99012.75;4936697;29;20035;-82
2022/04/22 07:22:37;;;;;;;97.93;51.53;;;;;;;8.88;100.00;99014.38;4936122;29;20042;-82
2022/04/22 07:25:07;;;;;;;92.95;49.25;;;;;;;8.91;100.00;99010.53;4936585;29;20040;-82
2022/04/22 07:27:35;;;;;;;91.97;48.47;;;;;;;8.99;100.00;99010.41;4936712;29;20032;-84
2022/04/22 07:30:02;;;;;;;91.68;48.50;;;;;;;8.97;100.00;99017.72;4919606;29;20049;-83
2022/04/22 07:32:27;;;;;;;90.78;48.08;;;;;;;8.96;100.00;99018.72;4935982;29;20037;-82
2022/04/22 07:34:56;;;;;;;86.07;49.20;;;;;;;9.08;100.00;99025.16;4936659;29;20032;-84
2022/04/22 07:37:23;;;;;;;87.13;49.45;;;;;;;9.02;100.00;99029.34;4936207;29;20114;-84
2022/04/22 07:39:49;;;;;;;86.97;49.42;;;;;;;9.17;100.00;99024.81;4936739;29;20092;-83
2022/04/22 07:42:20;;;;;;;86.40;48.30;;;;;;;9.18;100.00;99028.28;4936622;29;20675;-82
2022/04/22 07:47:33;;;;;;;85.45;47.50;;;;;;;9.14;100.00;99032.31;4936639;29;20039;-82
2022/04/22 07:50:00;;;;;;;90.97;49.65;;;;;;;9.26;100.00;99034.25;4936526;29;20522;-84
2022/04/22 07:52:26;;;;;;;80.43;46.05;;;;;;;9.42;100.00;99029.69;4936230;29;20036;-83
2022/04/22 07:54:52;;;;;;;78.95;45.78;;;;;;;9.42;100.00;99032.34;4935226;29;20044;-81
2022/04/22 07:57:17;;;;;;;81.93;46.67;;;;;;;9.30;100.00;99034.69;4936003;29;20406;-83
2022/04/22 07:59:42;;;;;;;88.20;47.30;;;;;;;9.26;100.00;99033.44;4936013;29;20095;-82
2022/04/22 08:02:08;;;;;;;80.25;46.78;;;;;;;9.19;100.00;99028.09;4936319;29;20395;-82
2022/04/22 08:04:34;;;;;;;81.90;46.42;;;;;;;9.18;100.00;99029.09;4935396;29;20376;-83
2022/04/22 08:07:01;;;;;;;81.25;46.88;;;;;;;9.24;100.00;99024.88;4947974;29;20074;-80
2022/04/22 08:09:26;;;;;;;86.53;47.25;;;;;;;9.23;100.00;99025.88;4945303;29;20117;-82
2022/04/22 08:11:52;;;;;;;82.70;45.85;;;;;;;9.22;100.00;99021.59;4936189;29;20039;-82
2022/04/22 08:14:17;;;;;;;79.97;44.33;;;;;;;9.19;100.00;99021.97;4935961;29;20067;-82
2022/04/22 08:16:43;;;;;;;79.90;46.38;;;;;;;9.25;100.00;99026.50;4936310;29;20107;-82
2022/04/22 08:19:09;;;;;;;81.78;47.80;;;;;;;9.25;100.00;99026.50;4935934;29;20034;-81
2022/04/22 08:21:34;;;;;;;84.82;48.10;;;;;;;9.24;100.00;99024.88;4935823;29;20067;-82
2022/04/22 08:24:04;;;;;;;87.57;48.60;;;;;;;9.21;100.00;99026.06;4936059;29;20035;-83
2022/04/22 08:26:32;;;;;;;89.85;47.90;;;;;;;9.28;100.00;99028.75;4936236;29;20036;-83
2022/04/22 08:28:58;;;;;;;84.28;45.90;;;;;;;9.24;100.00;99024.88;4936028;29;20100;-81
2022/04/22 08:31:23;;;;;;;83.32;46.92;;;;;;;9.26;100.00;99022.84;4935948;29;20074;-82
2022/04/22 08:33:50;;;;;;;89.57;47.92;;;;;;;9.23;100.00;99017.94;4935849;29;20039;-81
2022/04/22 08:36:15;;;;;;;82.93;45.50;;;;;;;9.27;100.00;99027.16;4935848;29;20040;-83
2022/04/22 08:38:41;;;;;;;78.85;44.50;;;;;;;9.44;100.00;99025.88;4935934;29;20099;-82
2022/04/22 08:41:09;;;;;;;88.78;45.50;;;;;;;9.37;100.00;99013.59;4935763;29;20046;-81
2022/04/22 08:43:37;;;;;;;84.75;45.22;;;;;;;9.30;100.00;99018.84;4936932;29;20046;-81
2022/04/22 08:46:02;;;;;;;74.75;41.47;;;;;;;9.24;100.00;99024.88;4922273;29;20031;-81
2022/04/22 08:51:15;;;;;;;78.80;43.55;;;;;;;9.30;100.00;99024.94;4941828;29;20487;-81
2022/04/22 08:53:43;;;;;;;77.15;43.35;;;;;;;9.43;100.00;99029.50;4941572;29;20047;-80
2022/04/22 08:56:10;;;;;;;75.70;42.40;;;;;;;9.45;100.00;99024.03;4940100;29;20139;-83
2022/04/22 08:58:36;;;;;;;78.85;43.95;;;;;;;9.40;100.00;99024.63;4938958;29;20036;-81
2022/04/22 09:01:02;;;;;;;75.85;42.95;;;;;;;9.45;100.00;99027.50;4939137;29;20047;-81
2022/04/22 09:03:29;;;;;;;79.95;42.53;;;;;;;9.48;100.00;99019.16;4938701;29;20062;-83
2022/04/22 09:06:04;;;;;;;75.07;41.08;;;;;;;9.53;100.00;99029.19;4939005;29;20034;-82
2022/04/22 09:08:30;;;;;;;77.68;42.85;;;;;;;9.54;100.00;99022.91;4938957;29;20024;-82
2022/04/22 09:10:57;;;;;;;77.95;42.15;;;;;;;9.63;100.00;99033.13;4938718;29;20379;-81
2022/04/22 09:13:26;;;;;;;76.05;41.80;;;;;;;9.60;100.00;99030.06;4939138;29;20042;-82
2022/04/22 09:15:53;;;;;;;72.03;43.13;;;;;;;9.57;100.00;99025.97;4921868;29;20047;-86
2022/04/22 09:18:23;;;;;;;74.65;43.33;;;;;;;9.55;100.00;99027.16;4939095;29;20391;-81
2022/04/22 09:20:49;;;;;;;79.55;44.83;;;;;;;9.60;100.00;99030.88;4939068;29;20380;-82
2022/04/22 09:23:29;;;;;;;98.85;53.63;;;;;;;9.73;100.00;99025.69;4938402;29;20042;-84
2022/04/22 09:25:55;;;;;;;74.60;42.88;;;;;;;9.71;100.00;99029.53;4938344;29;20043;-82
2022/04/22 09:28:21;;;;;;;80.25;43.35;;;;;;;9.75;100.00;99031.59;4938871;29;20119;-82
2022/04/22 09:31:00;;;;;;;80.13;42.38;;;;;;;9.77;100.00;99037.53;4943110;29;20099;-82
2022/04/22 09:33:34;;;;;;;82.32;42.67;;;;;;;9.90;100.00;99036.78;4947528;29;20091;-83
2022/04/22 09:44:55;;;;;;;71.75;38.30;;;;;;;10.70;100.00;99044.13;4938590;29;20043;-82
2022/04/22 09:47:27;;;;;;;69.72;39.10;;;;;;;11.04;100.00;99048.50;4938534;29;20113;-83
2022/04/22 09:49:53;;;;;;;70.55;39.17;;;;;;;11.38;100.00;99043.03;4937150;29;20074;-82
2022/04/22 09:52:34;;;;;;;56.97;36.30;;;;;;;11.45;100.00;99046.50;4919962;29;20383;-83
2022/04/22 09:55:09;;;;;;;56.15;33.58;;;;;;;11.47;100.00;99044.47;4936793;29;20071;-82
2022/04/22 09:57:59;;;;;;;58.42;33.33;;;;;;;11.60;100.00;99039.16;4936997;29;20074;-83
2022/04/22 10:00:26;;;;;;;55.78;31.75;;;;;;;11.88;100.00;99042.44;4936730;29;20499;-81
2022/04/22 10:02:53;;;;;;;49.13;30.70;;;;;;;11.71;100.00;99038.59;4937040;29;20032;-82
2022/04/22 10:05:26;;;;;;;51.72;31.20;;;;;;;11.70;100.00;99041.44;4937611;29;20031;-81
2022/04/22 10:07:53;;;;;;;48.35;29.05;;;;;;;11.71;100.00;99037.75;4939483;29;20035;-81
2022/04/22 10:10:29;;;;;;;46.15;29.48;;;;;;;11.81;100.00;99038.97;4939924;29;20383;-82
2022/04/22 10:12:56;;;;;;;49.53;30.30;;;;;;;11.85;100.00;99042.03;4946314;29;20131;-81
2022/04/22 10:15:27;;;;;;;52.58;29.00;;;;;;;11.54;100.00;99042.63;4944461;29;20063;-84
2022/04/22 10:17:53;;;;;;;44.08;27.80;;;;;;;11.69;100.00;99035.28;4942614;29;20099;-80
2022/04/22 10:20:20;;;;;;;41.17;26.10;;;;;;;11.92;100.00;99045.50;4943546;29;20031;-83
2022/04/22 10:22:52;;;;;;;44.45;26.80;;;;;;;11.86;100.00;99046.34;4940866;29;20440;-82
2022/04/22 10:25:19;;;;;;;43.67;27.20;;;;;;;11.92;100.00;99045.50;4938928;29;20533;-83
2022/04/22 10:27:46;;;;;;;40.65;25.70;;;;;;;12.08;100.00;99045.06;4937423;29;20091;-82
2022/04/22 10:30:14;;;;;;;37.92;25.90;;;;;;;12.30;100.00;99045.59;4904542;29;20044;-83
2022/04/22 10:32:41;;;;;;;47.97;25.75;;;;;;;12.14;100.00;99046.06;4937309;29;20052;-83
2022/04/22 10:35:09;;;;;;;37.17;24.67;;;;;;;12.21;100.00;99054.84;4936095;29;20115;-85
2022/04/22 10:37:41;;;;;;;33.53;22.38;;;;;;;12.40;100.00;99048.66;4937425;29;20044;-84
2022/04/22 10:40:18;;;;;;;36.20;23.48;;;;;;;12.63;100.00;99053.47;4937266;29;20044;-82
2022/04/22 10:42:44;;;;;;;41.83;23.50;;;;;;;12.72;100.00;99050.38;4936193;29;20039;-83
2022/04/22 10:47:57;;;;;;;35.67;22.77;;;;;;;12.81;100.00;99057.06;4937890;29;20067;-81
2022/04/22 10:50:35;;;;;;;36.83;23.27;;;;;;;12.74;100.00;99061.59;4937584;29;20061;-84
2022/04/22 10:53:09;;;;;;;36.55;20.15;;;;;;;13.01;100.00;99066.78;4937961;29;20131;-82
2022/04/22 10:55:42;;;;;;;34.03;20.33;;;;;;;13.01;100.00;99067.59;4949229;29;20023;-81
2022/04/22 10:58:13;;;;;;;;;;;;;;;12.98;100.00;99061.91;4946565;29;20163;-82
2022/04/22 11:00:45;;;;;;;29.20;18.85;;;;;;;12.96;100.00;99065.56;4950112;29;20005;-84
2022/04/22 11:03:16;;;;;;;29.20;18.75;;;;;;;13.19;100.00;99067.72;4939090;29;20039;-82
2022/04/22 11:05:55;;;;;;;22.80;14.48;;;;;;;13.19;100.00;99065.06;4955087;29;20036;-82
2022/04/22 11:08:26;;;;;;;27.17;18.50;;;;;;;13.34;100.00;99057.63;4946748;29;20032;-84
2022/04/22 11:10:52;;;;;;;30.55;17.20;;;;;;;13.33;100.00;99065.78;4921955;29;20040;-82
2022/04/22 11:13:32;;;;;;;30.48;17.45;;;;;;;13.21;100.00;99073.66;4938822;29;20038;-85
2022/04/22 11:16:15;;;;;;;23.42;15.48;;;;;;;13.29;100.00;99072.59;4937965;29;20204;-82
2022/04/22 11:18:45;;;;;;;25.15;16.08;;;;;;;13.12;100.00;99069.63;4938480;29;20106;-81
2022/04/22 11:21:33;;;;;;;22.23;14.60;;;;;;;13.20;100.00;99073.88;4940442;29;20119;-86
2022/04/22 11:24:25;;;;;;;21.83;13.90;;;;;;;13.11;100.00;99067.19;4939718;29;20103;-84
2022/04/22 11:26:52;;;;;;;22.53;13.17;;;;;;;13.30;100.00;99074.22;4939627;29;20038;-83
2022/04/22 11:29:19;;;;;;;17.33;11.40;;;;;;;13.29;100.00;99069.94;4937865;29;20032;-80
2022/04/22 11:32:13;;;;;;;17.00;10.93;;;;;;;13.33;100.00;99076.44;4936503;29;20044;-82
2022/04/22 11:34:50;;;;;;;19.17;10.80;;;;;;;13.48;100.00;99084.13;4937481;29;20042;-80
2022/04/22 11:37:24;;;;;;;16.77;10.02;;;;;;;13.89;100.00;99077.22;4936055;29;20372;-80
2022/04/22 11:39:50;;;;;;;17.52;10.95;;;;;;;13.78;100.00;99085.94;4936955;29;20032;-84
2022/04/22 11:42:19;;;;;;;16.48;9.23;;;;;;;13.68;100.00;99079.47;4937385;29;20087;-81
2022/04/22 11:45:06;;;;;;;21.45;9.35;;;;;;;13.67;100.00;99086.66;4937027;29;20042;-83
2022/04/22 11:47:32;;;;;;;13.80;9.60;;;;;;;13.51;100.00;99089.84;4936700;29;20036;-82
2022/04/22 11:49:59;;;;;;;18.10;8.35;;;;;;;13.56;100.00;99078.53;4920015;29;20546;-83
2022/04/22 11:52:28;;;;;;;12.70;8.95;;;;;;;13.62;100.00;99083.00;4936393;29;20119;-82
2022/04/22 11:54:58;;;;;;;14.95;8.60;;;;;;;13.86;100.00;99088.31;4936085;29;20087;-83
2022/04/22 11:57:24;;;;;;;15.45;8.82;;;;;;;13.82;100.00;99076.47;4937079;29;20028;-81
2022/04/22 12:05:32;;;;;;;13.65;8.48;;;;;;;13.99;100.00;99087.38;4920416;29;20483;-80
2022/04/22 12:05:35;;;;;;;13.48;8.35;;;;;;;14.19;100.00;99092.53;4936534;29;20040;-82
2022/04/22 12:08:07;;;;;;;12.63;8.40;;;;;;;14.21;100.00;99085.16;4937143;29;20402;-82
2022/04/22 12:10:34;;;;;;;22.08;8.90;;;;;;;14.16;100.00;99092.97;4937369;29;20056;-81
2022/04/22 12:13:01;;;;;;;11.38;7.93;;;;;;;13.82;100.00;99095.09;4937405;29;20123;-81
2022/04/22 12:15:27;;;;;;;22.48;10.30;;;;;;;13.85;100.00;99097.34;4904606;29;20035;-82
2022/04/22 12:17:52;;;;;;;14.23;8.52;;;;;;;13.69;100.00;99097.88;4937064;29;20040;-79